CheckWX is a tool to help pilots better visualize weather data.  It is not intended as a substitute for an official pre-flight weather briefing.

05:59:11 UTC

TXKF METAR
L F Wade International Airport
Hamilton, Bermuda
Current

1 hour ago

TXKF 270455Z 10012KT 9999 SCT012 BKN045 21/19 Q1024
Observed
May-27 @ 04:55 UTC
Wind
  • 100° at 12 KTS
Visibility
10,000+ meters
Flight Rules
VFR
Cloud Levels
  • Scattered at 1,200' AGL
  • Broken at 4,500' AGL
Temperature
21°C / 70°F
Dewpoint
19°C / 66°F
Humidity
88%
Altimeter
30.24" Hg
Pressure
1023.92 hPa
Previous

2 hours ago

TXKF 270355Z 10013KT 9999 SCT012 21/20 Q1024
Observed
May-27 @ 03:55 UTC
Wind
  • 100° at 13 KTS
Visibility
10,000+ meters
Flight Rules
VFR
Cloud Levels
  • Scattered at 1,200' AGL
Temperature
21°C / 70°F
Dewpoint
20°C / 68°F
Humidity
94%
Altimeter
30.24" Hg
Pressure
1023.92 hPa
Previous

3 hours ago

TXKF 270255Z 10013KT 9999 SCT013 21/19 Q1024
Observed
May-27 @ 02:55 UTC
Wind
  • 100° at 13 KTS
Visibility
10,000+ meters
Flight Rules
VFR
Cloud Levels
  • Scattered at 1,300' AGL
Temperature
21°C / 70°F
Dewpoint
19°C / 66°F
Humidity
88%
Altimeter
30.24" Hg
Pressure
1023.92 hPa